sensor_id;sensor_type;location;lat;lon;timestamp;pressure;altitude;pressure_sealevel;temperature;humidity
20424;BME280;10371;49.042;8.002;2023-05-24T00:00:40;100251.88;;;13.01;85.20
20424;BME280;10371;49.042;8.002;2023-05-24T00:01:41;100249.00;;;13.04;85.57
20424;BME280;10371;49.042;8.002;2023-05-24T00:02:41;100252.50;;;13.14;85.51
20424;BME280;10371;49.042;8.002;2023-05-24T00:03:42;100250.69;;;13.05;85.04
20424;BME280;10371;49.042;8.002;2023-05-24T00:04:45;100250.03;;;13.12;85.40
20424;BME280;10371;49.042;8.002;2023-05-24T00:05:48;100248.50;;;13.10;85.27
20424;BME280;10371;49.042;8.002;2023-05-24T00:06:48;100242.31;;;13.11;85.22
20424;BME280;10371;49.042;8.002;2023-05-24T00:07:49;100246.38;;;13.04;85.08
20424;BME280;10371;49.042;8.002;2023-05-24T00:08:49;100249.59;;;13.07;85.24
20424;BME280;10371;49.042;8.002;2023-05-24T00:09:50;100238.06;;;13.10;85.23
20424;BME280;10371;49.042;8.002;2023-05-24T00:10:50;100242.31;;;13.11;85.10
20424;BME280;10371;49.042;8.002;2023-05-24T00:11:50;100240.41;;;13.13;85.24
20424;BME280;10371;49.042;8.002;2023-05-24T00:12:51;100241.13;;;13.15;85.30
20424;BME280;10371;49.042;8.002;2023-05-24T00:13:51;100239.66;;;13.01;85.19
20424;BME280;10371;49.042;8.002;2023-05-24T00:14:51;100240.66;;;13.10;85.71
20424;BME280;10371;49.042;8.002;2023-05-24T00:15:51;100235.19;;;13.13;85.54
20424;BME280;10371;49.042;8.002;2023-05-24T00:16:52;100238.00;;;13.00;85.56
20424;BME280;10371;49.042;8.002;2023-05-24T00:17:52;100232.56;;;12.92;85.97
20424;BME280;10371;49.042;8.002;2023-05-24T00:18:53;100232.00;;;12.88;86.25
20424;BME280;10371;49.042;8.002;2023-05-24T00:19:53;100235.06;;;12.93;86.41
20424;BME280;10371;49.042;8.002;2023-05-24T00:20:54;100227.22;;;12.93;86.92
20424;BME280;10371;49.042;8.002;2023-05-24T00:21:56;100235.44;;;12.89;86.71
20424;BME280;10371;49.042;8.002;2023-05-24T00:22:56;100231.19;;;12.88;86.88
20424;BME280;10371;49.042;8.002;2023-05-24T00:23:56;100227.75;;;12.87;86.84
20424;BME280;10371;49.042;8.002;2023-05-24T00:24:57;100218.38;;;12.85;86.87
20424;BME280;10371;49.042;8.002;2023-05-24T00:25:57;100222.78;;;12.84;86.84
20424;BME280;10371;49.042;8.002;2023-05-24T00:26:57;100218.06;;;12.78;87.31
20424;BME280;10371;49.042;8.002;2023-05-24T00:27:57;100220.41;;;12.81;87.47
20424;BME280;10371;49.042;8.002;2023-05-24T00:28:58;100209.28;;;12.79;87.76
20424;BME280;10371;49.042;8.002;2023-05-24T00:29:58;100210.91;;;12.80;87.76
20424;BME280;10371;49.042;8.002;2023-05-24T00:30:59;100211.22;;;12.87;87.73
20424;BME280;10371;49.042;8.002;2023-05-24T00:31:59;100212.06;;;12.87;87.62
20424;BME280;10371;49.042;8.002;2023-05-24T00:33:00;100214.50;;;12.79;87.49
20424;BME280;10371;49.042;8.002;2023-05-24T00:34:00;100216.94;;;12.71;87.38
20424;BME280;10371;49.042;8.002;2023-05-24T00:35:00;100214.13;;;12.63;87.60
20424;BME280;10371;49.042;8.002;2023-05-24T00:36:01;100207.38;;;12.60;88.02
20424;BME280;10371;49.042;8.002;2023-05-24T00:37:01;100207.22;;;12.62;88.02
20424;BME280;10371;49.042;8.002;2023-05-24T00:38:01;100204.75;;;12.60;87.86
20424;BME280;10371;49.042;8.002;2023-05-24T00:39:01;100207.47;;;12.59;87.93
20424;BME280;10371;49.042;8.002;2023-05-24T00:40:02;100204.88;;;12.59;87.45
20424;BME280;10371;49.042;8.002;2023-05-24T00:41:04;100199.19;;;12.53;87.21
20424;BME280;10371;49.042;8.002;2023-05-24T00:42:05;100206.81;;;12.57;87.09
20424;BME280;10371;49.042;8.002;2023-05-24T00:43:05;100206.91;;;12.55;86.90
20424;BME280;10371;49.042;8.002;2023-05-24T00:44:05;100196.72;;;12.52;86.75
20424;BME280;10371;49.042;8.002;2023-05-24T00:45:06;100210.75;;;12.51;86.40
20424;BME280;10371;49.042;8.002;2023-05-24T00:46:15;100209.22;;;12.48;86.20
20424;BME280;10371;49.042;8.002;2023-05-24T00:47:16;100203.53;;;12.43;86.51
20424;BME280;10371;49.042;8.002;2023-05-24T00:48:17;100194.16;;;12.41;86.19
20424;BME280;10371;49.042;8.002;2023-05-24T00:49:18;100192.53;;;12.40;86.13
20424;BME280;10371;49.042;8.002;2023-05-24T00:50:18;100202.13;;;12.39;86.17
20424;BME280;10371;49.042;8.002;2023-05-24T00:51:20;100197.84;;;12.38;85.98
20424;BME280;10371;49.042;8.002;2023-05-24T00:52:20;100200.22;;;12.41;85.76
20424;BME280;10371;49.042;8.002;2023-05-24T00:53:21;100197.59;;;12.41;85.50
20424;BME280;10371;49.042;8.002;2023-05-24T00:54:21;100191.94;;;12.36;85.33
20424;BME280;10371;49.042;8.002;2023-05-24T00:55:23;100195.75;;;12.32;84.70
20424;BME280;10371;49.042;8.002;2023-05-24T00:56:24;100197.84;;;12.38;84.90
20424;BME280;10371;49.042;8.002;2023-05-24T00:57:25;100206.66;;;12.37;84.42
20424;BME280;10371;49.042;8.002;2023-05-24T00:58:27;100207.72;;;12.35;84.31
20424;BME280;10371;49.042;8.002;2023-05-24T00:59:30;100205.69;;;12.38;84.08
20424;BME280;10371;49.042;8.002;2023-05-24T01:00:31;100205.50;;;12.30;83.77
20424;BME280;10371;49.042;8.002;2023-05-24T01:01:31;100195.41;;;12.25;83.66
20424;BME280;10371;49.042;8.002;2023-05-24T01:02:31;100206.41;;;12.40;83.83
20424;BME280;10371;49.042;8.002;2023-05-24T01:03:33;100200.09;;;12.43;82.68
20424;BME280;10371;49.042;8.002;2023-05-24T01:04:34;100199.91;;;12.35;82.40
20424;BME280;10371;49.042;8.002;2023-05-24T01:05:34;100195.44;;;12.46;82.08
20424;BME280;10371;49.042;8.002;2023-05-24T01:06:45;100189.78;;;12.41;81.37
20424;BME280;10371;49.042;8.002;2023-05-24T01:11:03;100192.69;;;12.27;81.12
20424;BME280;10371;49.042;8.002;2023-05-24T01:12:19;100196.00;;;12.29;80.91
20424;BME280;10371;49.042;8.002;2023-05-24T01:13:35;100197.91;;;12.27;81.27
20424;BME280;10371;49.042;8.002;2023-05-24T01:14:43;100199.81;;;12.25;80.57
20424;BME280;10371;49.042;8.002;2023-05-24T01:16:06;100197.69;;;12.19;80.87
20424;BME280;10371;49.042;8.002;2023-05-24T01:17:22;100189.38;;;12.25;80.25
20424;BME280;10371;49.042;8.002;2023-05-24T01:18:33;100193.44;;;12.18;80.20
20424;BME280;10371;49.042;8.002;2023-05-24T01:20:42;100201.97;;;12.20;80.43
20424;BME280;10371;49.042;8.002;2023-05-24T01:27:36;100208.53;;;12.03;81.54
20424;BME280;10371;49.042;8.002;2023-05-24T01:28:37;100208.94;;;11.98;81.77
20424;BME280;10371;49.042;8.002;2023-05-24T01:29:38;100199.66;;;12.05;82.10
20424;BME280;10371;49.042;8.002;2023-05-24T01:30:39;100206.06;;;12.01;81.84
20424;BME280;10371;49.042;8.002;2023-05-24T01:31:41;100200.34;;;12.07;82.63
20424;BME280;10371;49.042;8.002;2023-05-24T01:32:41;100191.25;;;12.02;82.30
20424;BME280;10371;49.042;8.002;2023-05-24T01:33:42;100205.94;;;12.03;81.59
20424;BME280;10371;49.042;8.002;2023-05-24T01:34:43;100203.94;;;12.06;81.76
20424;BME280;10371;49.042;8.002;2023-05-24T01:35:43;100198.09;;;12.03;81.76
20424;BME280;10371;49.042;8.002;2023-05-24T01:36:43;100204.34;;;12.12;82.05
20424;BME280;10371;49.042;8.002;2023-05-24T01:37:43;100204.88;;;12.05;81.18
20424;BME280;10371;49.042;8.002;2023-05-24T01:38:44;100203.22;;;12.04;81.07
20424;BME280;10371;49.042;8.002;2023-05-24T01:39:45;100207.00;;;12.00;81.27
20424;BME280;10371;49.042;8.002;2023-05-24T01:40:48;100207.00;;;12.00;81.45
20424;BME280;10371;49.042;8.002;2023-05-24T01:41:52;100201.78;;;12.00;81.48
20424;BME280;10371;49.042;8.002;2023-05-24T01:44:14;100210.84;;;11.96;81.97
20424;BME280;10371;49.042;8.002;2023-05-24T01:46:28;100215.34;;;11.94;81.80
20424;BME280;10371;49.042;8.002;2023-05-24T01:47:45;100204.44;;;11.89;82.05
20424;BME280;10371;49.042;8.002;2023-05-24T01:49:05;100210.94;;;11.95;82.30
20424;BME280;10371;49.042;8.002;2023-05-24T01:50:21;100213.44;;;11.96;81.84
20424;BME280;10371;49.042;8.002;2023-05-24T01:51:29;100213.44;;;11.96;81.57
20424;BME280;10371;49.042;8.002;2023-05-24T01:52:33;100217.00;;;11.95;81.18
20424;BME280;10371;49.042;8.002;2023-05-24T01:53:40;100215.47;;;11.93;81.13
20424;BME280;10371;49.042;8.002;2023-05-24T01:54:47;100216.75;;;11.98;81.21
20424;BME280;10371;49.042;8.002;2023-05-24T01:55:53;100216.06;;;11.96;80.86
20424;BME280;10371;49.042;8.002;2023-05-24T01:56:56;100218.66;;;11.96;81.12
20424;BME280;10371;49.042;8.002;2023-05-24T01:58:00;100219.63;;;11.95;81.17
20424;BME280;10371;49.042;8.002;2023-05-24T01:59:01;100209.53;;;11.91;81.24
20424;BME280;10371;49.042;8.002;2023-05-24T02:00:03;100212.13;;;12.02;81.10
20424;BME280;10371;49.042;8.002;2023-05-24T02:01:05;100220.06;;;12.00;81.04
20424;BME280;10371;49.042;8.002;2023-05-24T02:02:05;100214.41;;;11.95;81.19
20424;BME280;10371;49.042;8.002;2023-05-24T02:03:06;100220.56;;;11.94;80.81
20424;BME280;10371;49.042;8.002;2023-05-24T02:04:06;100221.78;;;11.90;80.79
20424;BME280;10371;49.042;8.002;2023-05-24T02:05:08;100222.59;;;11.91;80.89
20424;BME280;10371;49.042;8.002;2023-05-24T02:06:09;100225.31;;;11.89;80.94
20424;BME280;10371;49.042;8.002;2023-05-24T02:07:09;100221.38;;;11.95;81.25
20424;BME280;10371;49.042;8.002;2023-05-24T02:08:10;100217.63;;;11.88;81.10
20424;BME280;10371;49.042;8.002;2023-05-24T02:09:10;100225.31;;;11.89;80.99
20424;BME280;10371;49.042;8.002;2023-05-24T02:10:10;100227.91;;;11.78;81.32
20424;BME280;10371;49.042;8.002;2023-05-24T02:11:11;100238.22;;;11.79;81.72
20424;BME280;10371;49.042;8.002;2023-05-24T02:12:11;100231.81;;;11.83;81.77
20424;BME280;10371;49.042;8.002;2023-05-24T02:13:11;100229.34;;;11.82;81.26
20424;BME280;10371;49.042;8.002;2023-05-24T02:14:11;100232.53;;;11.74;81.38
20424;BME280;10371;49.042;8.002;2023-05-24T02:15:12;100235.50;;;11.70;81.52
20424;BME280;10371;49.042;8.002;2023-05-24T02:16:13;100227.56;;;11.71;81.65
20424;BME280;10371;49.042;8.002;2023-05-24T02:17:14;100227.44;;;11.73;81.76
20424;BME280;10371;49.042;8.002;2023-05-24T02:18:16;100232.78;;;11.71;81.53
20424;BME280;10371;49.042;8.002;2023-05-24T02:19:17;100229.34;;;11.71;81.63
20424;BME280;10371;49.042;8.002;2023-05-24T02:20:18;100228.88;;;11.66;81.51
20424;BME280;10371;49.042;8.002;2023-05-24T02:21:18;100221.78;;;11.68;81.62
20424;BME280;10371;49.042;8.002;2023-05-24T02:22:18;100227.25;;;11.65;81.75
20424;BME280;10371;49.042;8.002;2023-05-24T02:23:21;100230.78;;;11.63;81.64
20424;BME280;10371;49.042;8.002;2023-05-24T02:24:21;100233.63;;;11.72;81.51
20424;BME280;10371;49.042;8.002;2023-05-24T02:25:22;100232.44;;;11.76;81.59
20424;BME280;10371;49.042;8.002;2023-05-24T02:26:22;100228.88;;;11.66;81.21
20424;BME280;10371;49.042;8.002;2023-05-24T02:27:23;100230.44;;;11.68;81.24
20424;BME280;10371;49.042;8.002;2023-05-24T02:28:23;100225.31;;;11.67;81.30
20424;BME280;10371;49.042;8.002;2023-05-24T02:29:24;100222.22;;;11.73;81.11
20424;BME280;10371;49.042;8.002;2023-05-24T02:30:24;100229.34;;;11.71;80.52
20424;BME280;10371;49.042;8.002;2023-05-24T02:31:25;100236.94;;;11.62;80.61
20424;BME280;10371;49.042;8.002;2023-05-24T02:32:27;100230.69;;;11.54;80.81
20424;BME280;10371;49.042;8.002;2023-05-24T02:33:28;100240.97;;;11.55;80.26
20424;BME280;10371;49.042;8.002;2023-05-24T02:34:28;100236.59;;;11.56;80.58
20424;BME280;10371;49.042;8.002;2023-05-24T02:35:29;100238.13;;;11.58;80.54
20424;BME280;10371;49.042;8.002;2023-05-24T02:36:29;100238.59;;;11.63;80.83
20424;BME280;10371;49.042;8.002;2023-05-24T02:37:31;100239.44;;;11.64;80.09
20424;BME280;10371;49.042;8.002;2023-05-24T02:38:31;100229.63;;;11.56;80.17
20424;BME280;10371;49.042;8.002;2023-05-24T02:39:32;100246.19;;;11.67;80.46
20424;BME280;10371;49.042;8.002;2023-05-24T02:40:32;100237.88;;;11.61;80.17
20424;BME280;10371;49.042;8.002;2023-05-24T02:41:33;100239.56;;;11.62;80.16
20424;BME280;10371;49.042;8.002;2023-05-24T02:42:34;100233.41;;;11.52;80.28
20424;BME280;10371;49.042;8.002;2023-05-24T02:43:34;100240.06;;;11.56;80.07
20424;BME280;10371;49.042;8.002;2023-05-24T02:44:35;100239.19;;;11.56;80.23
20424;BME280;10371;49.042;8.002;2023-05-24T02:45:35;100243.81;;;11.52;80.25
20424;BME280;10371;49.042;8.002;2023-05-24T02:46:36;100239.69;;;11.50;80.40
20424;BME280;10371;49.042;8.002;2023-05-24T02:47:36;100236.47;;;11.57;80.58
20424;BME280;10371;49.042;8.002;2023-05-24T02:48:37;100240.41;;;11.52;80.45
20424;BME280;10371;49.042;8.002;2023-05-24T02:49:37;100234.34;;;11.51;80.32
20424;BME280;10371;49.042;8.002;2023-05-24T02:50:37;100238.63;;;11.52;79.98
20424;BME280;10371;49.042;8.002;2023-05-24T02:51:37;100246.44;;;11.52;80.02
20424;BME280;10371;49.042;8.002;2023-05-24T02:52:38;100226.16;;;11.45;79.95
20424;BME280;10371;49.042;8.002;2023-05-24T02:53:38;100228.19;;;11.52;80.07
20424;BME280;10371;49.042;8.002;2023-05-24T02:54:38;100237.69;;;11.53;80.05
20424;BME280;10371;49.042;8.002;2023-05-24T02:55:39;100236.97;;;11.51;79.45
20424;BME280;10371;49.042;8.002;2023-05-24T02:56:39;100230.06;;;11.50;79.37
20424;BME280;10371;49.042;8.002;2023-05-24T02:57:40;100231.28;;;11.46;79.15
20424;BME280;10371;49.042;8.002;2023-05-24T02:58:40;100225.25;;;11.46;79.63
20424;BME280;10371;49.042;8.002;2023-05-24T02:59:41;100227.13;;;11.55;79.65
20424;BME280;10371;49.042;8.002;2023-05-24T03:00:41;100234.09;;;11.66;79.08
20424;BME280;10371;49.042;8.002;2023-05-24T03:01:41;100215.63;;;11.46;78.81
20424;BME280;10371;49.042;8.002;2023-05-24T03:02:42;100219.66;;;11.50;78.44
20424;BME280;10371;49.042;8.002;2023-05-24T03:03:42;100226.53;;;11.51;78.95
20424;BME280;10371;49.042;8.002;2023-05-24T03:04:42;100229.97;;;11.63;79.28
20424;BME280;10371;49.042;8.002;2023-05-24T03:05:43;100224.75;;;11.52;78.52
20424;BME280;10371;49.042;8.002;2023-05-24T03:06:43;100223.22;;;11.49;78.14
20424;BME280;10371;49.042;8.002;2023-05-24T03:07:43;100225.34;;;11.44;78.40
20424;BME280;10371;49.042;8.002;2023-05-24T03:08:43;100226.78;;;11.37;78.92
20424;BME280;10371;49.042;8.002;2023-05-24T03:09:44;100225.25;;;11.46;78.88
20424;BME280;10371;49.042;8.002;2023-05-24T03:10:44;100224.88;;;11.39;78.71
20424;BME280;10371;49.042;8.002;2023-05-24T03:11:45;100222.88;;;11.43;78.55
20424;BME280;10371;49.042;8.002;2023-05-24T03:12:45;100218.25;;;11.46;78.52
20424;BME280;10371;49.042;8.002;2023-05-24T03:13:45;100226.31;;;11.43;78.58
20424;BME280;10371;49.042;8.002;2023-05-24T03:14:45;100215.28;;;11.51;78.55
20424;BME280;10371;49.042;8.002;2023-05-24T03:15:46;100222.38;;;11.49;78.62
20424;BME280;10371;49.042;8.002;2023-05-24T03:16:46;100223.44;;;11.46;78.80
20424;BME280;10371;49.042;8.002;2023-05-24T03:17:46;100227.47;;;11.39;78.93
20424;BME280;10371;49.042;8.002;2023-05-24T03:18:46;100215.63;;;11.35;79.46
20424;BME280;10371;49.042;8.002;2023-05-24T03:19:49;100216.13;;;11.29;79.54
20424;BME280;10371;49.042;8.002;2023-05-24T03:20:51;100218.00;;;11.38;79.92
20424;BME280;10371;49.042;8.002;2023-05-24T03:21:51;100207.81;;;11.46;80.14
20424;BME280;10371;49.042;8.002;2023-05-24T03:22:52;100222.97;;;11.52;80.16
20424;BME280;10371;49.042;8.002;2023-05-24T03:23:52;100218.00;;;11.38;80.13
20424;BME280;10371;49.042;8.002;2023-05-24T03:24:52;100220.50;;;11.28;79.94
20424;BME280;10371;49.042;8.002;2023-05-24T03:25:52;100219.06;;;11.24;80.02
20424;BME280;10371;49.042;8.002;2023-05-24T03:26:53;100214.69;;;11.25;79.94
20424;BME280;10371;49.042;8.002;2023-05-24T03:27:53;100218.00;;;11.27;80.50
20424;BME280;10371;49.042;8.002;2023-05-24T03:28:53;100216.47;;;11.24;80.65
20424;BME280;10371;49.042;8.002;2023-05-24T03:29:53;100210.91;;;11.29;80.96
20424;BME280;10371;49.042;8.002;2023-05-24T03:30:54;100213.75;;;11.26;80.63
20424;BME280;10371;49.042;8.002;2023-05-24T03:31:54;100207.25;;;11.20;80.60
20424;BME280;10371;49.042;8.002;2023-05-24T03:32:54;100206.38;;;11.19;80.65
20424;BME280;10371;49.042;8.002;2023-05-24T03:33:55;100217.66;;;11.20;80.89
20424;BME280;10371;49.042;8.002;2023-05-24T03:34:55;100215.50;;;11.14;81.21
20424;BME280;10371;49.042;8.002;2023-05-24T03:35:58;100210.66;;;11.09;81.78
20424;BME280;10371;49.042;8.002;2023-05-24T03:36:59;100214.09;;;11.10;82.30
20424;BME280;10371;49.042;8.002;2023-05-24T03:37:59;100215.41;;;11.15;82.62
20424;BME280;10371;49.042;8.002;2023-05-24T03:39:00;100209.38;;;11.15;82.60
20424;BME280;10371;49.042;8.002;2023-05-24T03:40:02;100225.81;;;11.15;82.76
20424;BME280;10371;49.042;8.002;2023-05-24T03:41:04;100214.66;;;11.02;82.72
20424;BME280;10371;49.042;8.002;2023-05-24T03:42:04;100216.44;;;11.02;83.04
20424;BME280;10371;49.042;8.002;2023-05-24T03:43:04;100218.22;;;11.01;83.55
20424;BME280;10371;49.042;8.002;2023-05-24T03:44:06;100216.44;;;11.02;83.58
20424;BME280;10371;49.042;8.002;2023-05-24T03:45:07;100219.66;;;11.05;83.73
20424;BME280;10371;49.042;8.002;2023-05-24T03:46:08;100224.50;;;10.99;83.66
20424;BME280;10371;49.042;8.002;2023-05-24T03:47:08;100216.22;;;11.05;83.58
20424;BME280;10371;49.042;8.002;2023-05-24T03:48:08;100213.03;;;11.01;83.43
20424;BME280;10371;49.042;8.002;2023-05-24T03:49:09;100219.06;;;11.02;83.48
20424;BME280;10371;49.042;8.002;2023-05-24T03:50:09;100223.31;;;11.03;83.10
20424;BME280;10371;49.042;8.002;2023-05-24T03:51:10;100219.16;;;11.00;83.22
20424;BME280;10371;49.042;8.002;2023-05-24T03:52:10;100221.75;;;11.00;83.07
20424;BME280;10371;49.042;8.002;2023-05-24T03:53:10;100227.94;;;10.99;83.24
20424;BME280;10371;49.042;8.002;2023-05-24T03:54:11;100224.25;;;11.02;83.15
20424;BME280;10371;49.042;8.002;2023-05-24T03:55:11;100223.44;;;11.01;83.03
20424;BME280;10371;49.042;8.002;2023-05-24T03:56:11;100230.31;;;11.02;83.27
20424;BME280;10371;49.042;8.002;2023-05-24T03:57:12;100230.53;;;10.99;83.28
20424;BME280;10371;49.042;8.002;2023-05-24T03:58:12;100229.00;;;10.96;82.87
20424;BME280;10371;49.042;8.002;2023-05-24T03:59:12;100232.66;;;10.94;82.53
20424;BME280;10371;49.042;8.002;2023-05-24T04:00:13;100233.38;;;10.96;81.94
20424;BME280;10371;49.042;8.002;2023-05-24T04:01:14;100233.16;;;10.99;82.31
20424;BME280;10371;49.042;8.002;2023-05-24T04:02:14;100229.13;;;10.95;82.10
20424;BME280;10371;49.042;8.002;2023-05-24T04:03:15;100234.53;;;10.92;82.05
20424;BME280;10371;49.042;8.002;2023-05-24T04:04:15;100236.31;;;10.91;82.11
20424;BME280;10371;49.042;8.002;2023-05-24T04:05:15;100224.25;;;10.90;82.07
20424;BME280;10371;49.042;8.002;2023-05-24T04:06:15;100233.03;;;10.89;82.40
20424;BME280;10371;49.042;8.002;2023-05-24T04:07:16;100239.16;;;10.88;81.92
20424;BME280;10371;49.042;8.002;2023-05-24T04:08:16;100236.69;;;10.87;82.54
20424;BME280;10371;49.042;8.002;2023-05-24T04:09:16;100235.00;;;10.86;82.60
20424;BME280;10371;49.042;8.002;2023-05-24T04:10:17;100233.34;;;10.85;82.44
20424;BME280;10371;49.042;8.002;2023-05-24T04:11:17;100235.00;;;10.86;82.64
20424;BME280;10371;49.042;8.002;2023-05-24T04:12:18;100231.72;;;10.84;81.84
20424;BME280;10371;49.042;8.002;2023-05-24T04:13:19;100237.75;;;10.84;81.92
20424;BME280;10371;49.042;8.002;2023-05-24T04:14:19;100238.56;;;10.85;81.73
20424;BME280;10371;49.042;8.002;2023-05-24T04:15:19;100225.88;;;10.80;81.60
20424;BME280;10371;49.042;8.002;2023-05-24T04:16:21;100235.38;;;10.81;81.07
20424;BME280;10371;49.042;8.002;2023-05-24T04:17:23;100237.84;;;10.83;80.86
20424;BME280;10371;49.042;8.002;2023-05-24T04:18:23;100245.88;;;10.80;80.74
20424;BME280;10371;49.042;8.002;2023-05-24T04:19:23;100234.06;;;10.76;81.20
20424;BME280;10371;49.042;8.002;2023-05-24T04:20:24;100239.97;;;10.78;81.13
20424;BME280;10371;49.042;8.002;2023-05-24T04:21:26;100241.75;;;10.77;81.09
20424;BME280;10371;49.042;8.002;2023-05-24T04:22:26;100246.13;;;10.77;81.58
20424;BME280;10371;49.042;8.002;2023-05-24T04:23:27;100241.97;;;10.74;81.36
20424;BME280;10371;49.042;8.002;2023-05-24T04:24:27;100239.13;;;10.77;81.49
20424;BME280;10371;49.042;8.002;2023-05-24T04:25:27;100242.94;;;10.73;81.52
20424;BME280;10371;49.042;8.002;2023-05-24T04:26:29;100240.31;;;10.73;81.83
20424;BME280;10371;49.042;8.002;2023-05-24T04:27:29;100244.69;;;10.72;81.87
20424;BME280;10371;49.042;8.002;2023-05-24T04:28:30;100246.59;;;10.70;81.86
20424;BME280;10371;49.042;8.002;2023-05-24T04:29:30;100238.16;;;10.67;81.89
20424;BME280;10371;49.042;8.002;2023-05-24T04:30:32;100241.47;;;10.69;81.80
20424;BME280;10371;49.042;8.002;2023-05-24T04:31:32;100239.00;;;10.67;81.67
20424;BME280;10371;49.042;8.002;2023-05-24T04:32:33;100246.94;;;10.77;81.47
20424;BME280;10371;49.042;8.002;2023-05-24T04:33:33;100245.63;;;10.71;81.35
20424;BME280;10371;49.042;8.002;2023-05-24T04:34:34;100244.91;;;10.69;81.69
20424;BME280;10371;49.042;8.002;2023-05-24T04:35:34;100240.75;;;10.67;81.87
20424;BME280;10371;49.042;8.002;2023-05-24T04:36:35;100244.22;;;10.67;81.96
20424;BME280;10371;49.042;8.002;2023-05-24T04:37:35;100254.50;;;10.69;82.10
20424;BME280;10371;49.042;8.002;2023-05-24T04:38:35;100262.22;;;10.70;81.51
20424;BME280;10371;49.042;8.002;2023-05-24T04:39:37;100254.88;;;10.64;81.33
20424;BME280;10371;49.042;8.002;2023-05-24T04:40:37;100259.34;;;10.62;81.71
20424;BME280;10371;49.042;8.002;2023-05-24T04:41:38;100243.16;;;10.70;82.42
20424;BME280;10371;49.042;8.002;2023-05-24T04:42:38;100251.34;;;10.77;82.14
20424;BME280;10371;49.042;8.002;2023-05-24T04:43:38;100253.44;;;10.71;82.11
20424;BME280;10371;49.042;8.002;2023-05-24T04:44:39;100255.59;;;10.78;81.75
20424;BME280;10371;49.042;8.002;2023-05-24T04:45:40;100248.97;;;10.73;81.53
20424;BME280;10371;49.042;8.002;2023-05-24T04:46:40;100246.69;;;10.69;81.26
20424;BME280;10371;49.042;8.002;2023-05-24T04:47:41;100252.38;;;10.74;81.75
20424;BME280;10371;49.042;8.002;2023-05-24T04:48:41;100250.97;;;10.70;81.34
20424;BME280;10371;49.042;8.002;2023-05-24T04:49:42;100258.97;;;10.67;81.34
20424;BME280;10371;49.042;8.002;2023-05-24T04:50:42;100257.47;;;10.64;81.71
20424;BME280;10371;49.042;8.002;2023-05-24T04:51:43;100261.47;;;10.68;81.32
20424;BME280;10371;49.042;8.002;2023-05-24T04:52:43;100267.66;;;10.67;81.68
20424;BME280;10371;49.042;8.002;2023-05-24T04:53:43;100256.59;;;10.64;81.79
20424;BME280;10371;49.042;8.002;2023-05-24T04:54:44;100255.31;;;10.69;82.30
20424;BME280;10371;49.042;8.002;2023-05-24T04:55:44;100260.31;;;10.72;82.02
20424;BME280;10371;49.042;8.002;2023-05-24T04:56:44;100236.41;;;10.67;81.34
20424;BME280;10371;49.042;8.002;2023-05-24T04:57:45;100252.03;;;10.67;81.14
20424;BME280;10371;49.042;8.002;2023-05-24T04:58:46;100248.69;;;10.65;81.66
20424;BME280;10371;49.042;8.002;2023-05-24T04:59:46;100261.00;;;10.63;81.75
20424;BME280;10371;49.042;8.002;2023-05-24T05:00:47;100255.31;;;10.69;81.94
20424;BME280;10371;49.042;8.002;2023-05-24T05:01:47;100260.06;;;10.64;81.73
20424;BME280;10371;49.042;8.002;2023-05-24T05:02:47;100253.31;;;10.62;81.56
20424;BME280;10371;49.042;8.002;2023-05-24T05:03:48;100261.00;;;10.63;81.91
20424;BME280;10371;49.042;8.002;2023-05-24T05:04:48;100252.34;;;10.63;81.92
20424;BME280;10371;49.042;8.002;2023-05-24T05:05:48;100258.53;;;10.62;82.00
20424;BME280;10371;49.042;8.002;2023-05-24T05:06:48;100253.31;;;10.62;82.07
20424;BME280;10371;49.042;8.002;2023-05-24T05:07:49;100262.19;;;10.59;81.95
20424;BME280;10371;49.042;8.002;2023-05-24T05:08:49;100257.06;;;10.58;81.85
20424;BME280;10371;49.042;8.002;2023-05-24T05:09:51;100257.19;;;10.56;82.29
20424;BME280;10371;49.042;8.002;2023-05-24T05:10:51;100239.19;;;10.53;81.49
20424;BME280;10371;49.042;8.002;2023-05-24T05:11:51;100250.81;;;10.60;81.35
20424;BME280;10371;49.042;8.002;2023-05-24T05:12:52;100258.53;;;10.62;80.76
20424;BME280;10371;49.042;8.002;2023-05-24T05:13:52;100252.59;;;10.60;81.05
20424;BME280;10371;49.042;8.002;2023-05-24T05:14:53;100259.13;;;10.65;81.27
20424;BME280;10371;49.042;8.002;2023-05-24T05:15:54;100250.81;;;10.60;80.65
20424;BME280;10371;49.042;8.002;2023-05-24T05:16:54;100264.31;;;10.65;80.59
20424;BME280;10371;49.042;8.002;2023-05-24T05:17:54;100256.59;;;10.64;80.44
20424;BME280;10371;49.042;8.002;2023-05-24T05:18:55;100253.19;;;10.63;80.94
20424;BME280;10371;49.042;8.002;2023-05-24T05:19:55;100253.31;;;10.62;80.98
20424;BME280;10371;49.042;8.002;2023-05-24T05:20:55;100243.50;;;10.65;81.24
20424;BME280;10371;49.042;8.002;2023-05-24T05:21:56;100241.84;;;10.64;80.94
20424;BME280;10371;49.042;8.002;2023-05-24T05:22:56;100247.06;;;10.64;80.64
20424;BME280;10371;49.042;8.002;2023-05-24T05:23:56;100251.31;;;10.65;80.73
20424;BME280;10371;49.042;8.002;2023-05-24T05:24:57;100248.56;;;10.67;80.70
20424;BME280;10371;49.042;8.002;2023-05-24T05:25:57;100263.84;;;10.71;80.51
20424;BME280;10371;49.042;8.002;2023-05-24T05:26:57;100258.66;;;10.71;80.86
20424;BME280;10371;49.042;8.002;2023-05-24T05:27:57;100255.94;;;10.73;80.55
20424;BME280;10371;49.042;8.002;2023-05-24T05:28:58;100260.09;;;10.76;79.92
20424;BME280;10371;49.042;8.002;2023-05-24T05:29:58;100257.50;;;10.76;80.20
20424;BME280;10371;49.042;8.002;2023-05-24T05:30:58;100258.19;;;10.78;80.39
20424;BME280;10371;49.042;8.002;2023-05-24T05:31:58;100252.75;;;10.81;80.25
20424;BME280;10371;49.042;8.002;2023-05-24T05:32:59;100254.91;;;10.76;80.32